createdAt,value
2023-03-29T00:01:35.789Z,98.62
2023-03-29T00:04:06.208Z,98.37
2023-03-29T00:06:33.855Z,99.01
2023-03-29T00:09:00.924Z,98.49
2023-03-29T00:11:27.525Z,98.51
2023-03-29T00:13:54.233Z,98.43
2023-03-29T00:16:21.146Z,98.42
2023-03-29T00:18:47.949Z,98.66
2023-03-29T00:21:14.489Z,98.51
2023-03-29T00:23:40.956Z,98.42
2023-03-29T00:26:08.115Z,98.36
2023-03-29T00:28:35.106Z,98.13
2023-03-29T00:31:06.060Z,98.24
2023-03-29T00:33:32.919Z,98.03
2023-03-29T00:35:59.423Z,98.47
2023-03-29T00:38:25.949Z,98.33
2023-03-29T00:40:52.452Z,98.52
2023-03-29T00:43:18.987Z,99.03
2023-03-29T00:45:45.471Z,98.25
2023-03-29T00:48:21.739Z,98.67
2023-03-29T00:50:59.154Z,99.49
2023-03-29T00:53:43.650Z,98.81
2023-03-29T00:56:13.921Z,98.42
2023-03-29T00:59:05.023Z,98.94
2023-03-29T01:01:36.243Z,98.55
2023-03-29T01:04:17.031Z,98.83
2023-03-29T01:06:48.626Z,98.85
2023-03-29T01:09:18.495Z,98.69
2023-03-29T01:11:56.000Z,98.63
2023-03-29T01:14:41.577Z,98.83
2023-03-29T01:17:08.197Z,98.79
2023-03-29T01:19:42.064Z,98.68
2023-03-29T01:22:18.414Z,98.44
2023-03-29T01:24:54.822Z,98.51
2023-03-29T01:27:50.737Z,99.15
2023-03-29T01:30:39.301Z,98.64
2023-03-29T01:33:33.654Z,98.81
2023-03-29T01:36:09.524Z,98.17
2023-03-29T01:38:45.228Z,98.66
2023-03-29T01:41:11.921Z,98.47
2023-03-29T01:43:55.010Z,98.84
2023-03-29T01:46:36.525Z,98.59
2023-03-29T01:49:11.136Z,98.80
2023-03-29T01:51:42.897Z,98.62
2023-03-29T01:54:18.070Z,99.15
2023-03-29T01:56:47.619Z,98.36
2023-03-29T01:59:18.724Z,99.09
2023-03-29T02:01:50.882Z,99.15
2023-03-29T02:04:24.640Z,99.35
2023-03-29T02:06:52.866Z,99.40
2023-03-29T02:09:19.618Z,99.24
2023-03-29T02:11:48.382Z,99.01
2023-03-29T02:14:14.851Z,99.30
2023-03-29T02:16:41.380Z,99.39
2023-03-29T02:19:09.762Z,99.18
2023-03-29T02:21:44.518Z,99.02
2023-03-29T02:24:15.062Z,99.57
2023-03-29T02:26:41.562Z,99.81
2023-03-29T02:29:08.258Z,99.19
2023-03-29T02:31:51.416Z,99.55
2023-03-29T02:34:43.387Z,100.00
2023-03-29T02:37:14.685Z,99.70
2023-03-29T02:39:41.750Z,99.65
2023-03-29T02:42:09.971Z,99.07
2023-03-29T02:44:40.594Z,99.33
2023-03-29T02:47:22.107Z,99.20
2023-03-29T02:49:50.462Z,99.51
2023-03-29T02:52:23.637Z,99.78
2023-03-29T02:54:53.874Z,99.13
2023-03-29T02:57:22.725Z,99.09
2023-03-29T02:59:49.370Z,99.94
2023-03-29T03:02:16.011Z,99.65
2023-03-29T03:04:42.546Z,99.35
2023-03-29T03:07:09.054Z,99.79
2023-03-29T03:09:35.639Z,99.93
2023-03-29T03:12:02.264Z,100.00
2023-03-29T03:14:28.743Z,99.76
2023-03-29T03:16:57.703Z,100.00
2023-03-29T03:19:24.445Z,100.00
2023-03-29T03:21:50.955Z,100.00
2023-03-29T03:24:17.452Z,100.00
2023-03-29T03:26:44.105Z,100.00
2023-03-29T03:29:10.959Z,100.00
2023-03-29T03:32:03.387Z,99.90
2023-03-29T03:34:48.662Z,100.00
2023-03-29T03:37:15.291Z,100.00
2023-03-29T03:39:41.950Z,100.00
2023-03-29T03:42:10.022Z,100.00
2023-03-29T03:44:41.292Z,100.00
2023-03-29T03:47:30.807Z,100.00
2023-03-29T03:50:10.160Z,100.00
2023-03-29T03:52:38.175Z,100.00
2023-03-29T03:55:05.553Z,100.00
2023-03-29T03:57:46.121Z,100.00
2023-03-29T04:00:15.013Z,100.00
2023-03-29T04:02:41.693Z,100.00
2023-03-29T04:05:08.380Z,100.00
2023-03-29T04:07:37.582Z,100.00
2023-03-29T04:10:22.483Z,100.00
2023-03-29T04:13:01.226Z,100.00
2023-03-29T04:15:29.494Z,100.00
2023-03-29T04:18:05.791Z,100.00
2023-03-29T04:20:41.451Z,100.00
2023-03-29T04:23:09.261Z,100.00
2023-03-29T04:25:36.837Z,100.00
2023-03-29T04:28:32.280Z,100.00
2023-03-29T04:31:14.507Z,100.00
2023-03-29T04:34:02.131Z,100.00
2023-03-29T04:36:28.781Z,100.00
2023-03-29T04:38:55.482Z,100.00
2023-03-29T04:41:23.227Z,99.75
2023-03-29T04:44:12.490Z,100.00
2023-03-29T04:46:39.196Z,100.00
2023-03-29T04:49:40.100Z,100.00
2023-03-29T04:52:13.090Z,99.79
2023-03-29T04:54:39.587Z,99.95
2023-03-29T04:57:16.426Z,99.77
2023-03-29T04:59:47.554Z,100.00
2023-03-29T05:02:32.460Z,99.89
2023-03-29T05:04:59.376Z,100.00
2023-03-29T05:07:26.464Z,100.00
2023-03-29T05:09:52.948Z,100.00
2023-03-29T05:12:20.884Z,100.00
2023-03-29T05:14:52.160Z,100.00
2023-03-29T05:17:21.184Z,100.00
2023-03-29T05:19:48.935Z,100.00
2023-03-29T05:22:15.953Z,100.00
2023-03-29T05:24:42.454Z,100.00
2023-03-29T05:27:13.870Z,100.00
2023-03-29T05:29:42.149Z,100.00
2023-03-29T05:32:29.188Z,100.00
2023-03-29T05:34:56.029Z,100.00
2023-03-29T05:37:22.558Z,100.00
2023-03-29T05:40:05.688Z,100.00
2023-03-29T05:42:37.135Z,100.00
2023-03-29T05:45:08.108Z,100.00
2023-03-29T05:47:34.704Z,100.00
2023-03-29T05:50:01.292Z,100.00
2023-03-29T05:52:27.904Z,100.00
2023-03-29T05:54:54.455Z,100.00
2023-03-29T05:57:21.373Z,100.00
2023-03-29T05:59:47.853Z,100.00
2023-03-29T06:02:14.604Z,100.00
2023-03-29T06:04:45.437Z,100.00
2023-03-29T06:07:24.279Z,100.00
2023-03-29T06:10:09.651Z,100.00
2023-03-29T06:12:38.688Z,100.00
2023-03-29T06:15:06.150Z,100.00
2023-03-29T06:17:40.987Z,100.00
2023-03-29T06:20:09.150Z,100.00
2023-03-29T06:22:37.438Z,100.00
2023-03-29T06:25:05.947Z,100.00
2023-03-29T06:27:35.270Z,100.00
2023-03-29T06:30:02.573Z,100.00
2023-03-29T06:32:29.404Z,100.00
2023-03-29T06:35:00.292Z,100.00
2023-03-29T06:37:50.022Z,100.00
2023-03-29T06:40:31.406Z,100.00
2023-03-29T06:42:59.057Z,100.00
2023-03-29T06:45:40.390Z,100.00
2023-03-29T06:48:16.032Z,100.00
2023-03-29T06:50:42.547Z,99.96
2023-03-29T06:53:16.861Z,100.00
2023-03-29T06:55:47.741Z,99.92
2023-03-29T06:58:34.377Z,99.68
2023-03-29T07:01:07.323Z,100.00
2023-03-29T07:03:47.547Z,100.00
2023-03-29T07:06:17.260Z,100.00
2023-03-29T07:08:43.963Z,99.50
2023-03-29T07:11:20.337Z,99.61
2023-03-29T07:13:56.151Z,99.48
2023-03-29T07:16:23.081Z,99.16
2023-03-29T07:19:07.973Z,99.34
2023-03-29T07:21:53.690Z,99.04
2023-03-29T07:24:23.627Z,98.71
2023-03-29T07:27:03.439Z,98.72
2023-03-29T07:29:32.011Z,98.16
2023-03-29T07:31:58.529Z,98.74
2023-03-29T07:34:53.931Z,98.01
2023-03-29T07:37:31.394Z,97.65
2023-03-29T07:39:59.249Z,97.54
2023-03-29T07:42:39.910Z,96.97
2023-03-29T07:45:10.482Z,96.82
2023-03-29T07:47:54.106Z,96.33
2023-03-29T07:50:20.646Z,96.35
2023-03-29T07:52:47.149Z,95.38
2023-03-29T07:55:14.622Z,95.58
2023-03-29T07:57:55.372Z,94.89
2023-03-29T08:00:22.387Z,94.95
2023-03-29T08:03:05.838Z,94.77
2023-03-29T08:05:40.598Z,94.60
2023-03-29T08:08:13.470Z,94.55
2023-03-29T08:10:50.366Z,94.26
2023-03-29T08:13:31.525Z,93.80
2023-03-29T08:16:18.703Z,93.69
2023-03-29T08:18:52.427Z,93.76
2023-03-29T08:21:21.407Z,93.71
2023-03-29T08:23:49.538Z,93.55
2023-03-29T08:26:20.434Z,93.43
2023-03-29T08:28:48.714Z,94.10
2023-03-29T08:31:17.558Z,93.75
2023-03-29T08:33:44.924Z,93.41
2023-03-29T08:36:40.066Z,93.28
2023-03-29T08:39:14.376Z,92.97
2023-03-29T08:41:57.905Z,92.69
2023-03-29T08:44:56.724Z,92.21
2023-03-29T08:47:42.396Z,90.94
2023-03-29T08:50:14.660Z,90.71
2023-03-29T08:53:00.484Z,90.49
2023-03-29T08:55:58.719Z,90.45
2023-03-29T08:58:53.721Z,90.69
2023-03-29T09:01:23.045Z,90.43
2023-03-29T09:04:02.104Z,90.48
2023-03-29T09:06:42.824Z,90.46
2023-03-29T09:09:28.601Z,90.01
2023-03-29T09:12:00.353Z,90.12
2023-03-29T09:14:39.174Z,90.06
2023-03-29T09:17:09.970Z,89.94
2023-03-29T09:20:20.376Z,89.55
2023-03-29T09:23:07.692Z,90.03
2023-03-29T09:26:09.255Z,89.48
2023-03-29T09:29:07.724Z,89.88
2023-03-29T09:31:42.553Z,89.99
2023-03-29T09:34:16.669Z,89.19
2023-03-29T09:37:02.709Z,89.97
2023-03-29T09:39:29.778Z,89.39
2023-03-29T09:42:07.718Z,88.59
2023-03-29T09:44:41.887Z,87.90
2023-03-29T09:47:49.034Z,86.57
2023-03-29T09:50:34.545Z,86.62
2023-03-29T09:53:04.418Z,86.79
2023-03-29T09:55:35.577Z,86.75
2023-03-29T09:58:22.402Z,86.42
2023-03-29T10:00:51.139Z,86.98
2023-03-29T10:03:26.354Z,86.36
2023-03-29T10:06:09.636Z,86.66
2023-03-29T10:08:55.560Z,85.97
2023-03-29T10:11:31.517Z,86.63
2023-03-29T10:14:02.986Z,86.66
2023-03-29T10:16:30.680Z,86.39
2023-03-29T10:18:57.297Z,86.57
2023-03-29T10:21:23.789Z,87.36
2023-03-29T10:23:57.524Z,87.71
2023-03-29T10:26:31.776Z,87.53
2023-03-29T10:28:59.613Z,88.02
2023-03-29T10:31:29.843Z,88.31
2023-03-29T10:33:57.799Z,88.25
2023-03-29T10:36:27.259Z,88.39
2023-03-29T10:38:57.442Z,88.93
2023-03-29T10:41:25.606Z,89.07
2023-03-29T10:43:52.081Z,88.74
2023-03-29T10:46:27.640Z,89.46
2023-03-29T10:48:58.677Z,89.62
2023-03-29T10:51:28.526Z,90.21
2023-03-29T10:53:57.561Z,89.97
2023-03-29T10:56:40.676Z,90.20
2023-03-29T10:59:29.533Z,90.80
2023-03-29T11:02:05.129Z,91.10
2023-03-29T11:04:49.754Z,91.69
2023-03-29T11:07:42.245Z,92.46
2023-03-29T11:10:27.008Z,93.01
2023-03-29T11:13:14.400Z,92.83
2023-03-29T11:16:03.203Z,93.24
2023-03-29T11:18:35.869Z,93.36
2023-03-29T11:21:10.138Z,93.54
2023-03-29T11:23:49.277Z,93.88
2023-03-29T11:26:23.757Z,94.20
2023-03-29T11:29:01.557Z,94.18
2023-03-29T11:32:04.832Z,95.01
2023-03-29T11:34:59.721Z,93.76
2023-03-29T11:37:40.231Z,94.44
2023-03-29T11:40:27.112Z,94.32
2023-03-29T11:42:57.366Z,93.80
2023-03-29T11:45:52.584Z,94.15
2023-03-29T11:48:27.890Z,94.59
2023-03-29T11:51:08.388Z,93.84
2023-03-29T11:53:47.677Z,94.13
2023-03-29T11:56:21.697Z,94.04
2023-03-29T11:58:53.677Z,93.88
2023-03-29T12:01:47.743Z,93.66
2023-03-29T12:04:24.522Z,93.25
2023-03-29T12:07:16.711Z,93.01
2023-03-29T12:09:50.597Z,92.64
2023-03-29T12:12:29.463Z,92.01
2023-03-29T12:15:09.712Z,91.19
2023-03-29T12:17:41.879Z,91.27
2023-03-29T12:20:30.739Z,90.67
2023-03-29T12:23:00.130Z,91.00
2023-03-29T12:25:33.420Z,90.81
2023-03-29T12:28:18.142Z,90.99
2023-03-29T12:30:49.724Z,90.94
2023-03-29T12:34:04.004Z,91.55
2023-03-29T12:36:59.637Z,91.35
2023-03-29T12:40:01.388Z,92.07
2023-03-29T12:42:46.573Z,92.25
2023-03-29T12:45:37.174Z,92.37
2023-03-29T12:48:04.419Z,92.75
2023-03-29T12:50:36.617Z,93.01
2023-03-29T12:53:05.740Z,92.92
2023-03-29T12:55:54.695Z,93.24
2023-03-29T12:58:53.544Z,93.53
2023-03-29T13:01:25.184Z,93.92
2023-03-29T13:04:12.006Z,94.20
2023-03-29T13:06:47.349Z,93.48
2023-03-29T13:09:24.663Z,94.10
2023-03-29T13:12:03.436Z,94.50
2023-03-29T13:14:33.922Z,93.96
2023-03-29T13:17:17.695Z,93.65
2023-03-29T13:20:16.868Z,93.74
2023-03-29T13:22:48.165Z,93.58
2023-03-29T13:25:45.187Z,93.02
2023-03-29T13:28:37.467Z,92.60
2023-03-29T13:31:18.770Z,92.29
2023-03-29T13:34:09.852Z,92.25
2023-03-29T13:37:09.596Z,92.52
2023-03-29T13:39:36.698Z,92.22
2023-03-29T13:42:21.153Z,92.02
2023-03-29T13:44:48.350Z,91.89
2023-03-29T13:47:33.286Z,91.50
2023-03-29T13:50:03.698Z,91.32
2023-03-29T13:52:57.578Z,90.48
2023-03-29T13:55:28.978Z,90.08
2023-03-29T13:58:04.267Z,89.27
2023-03-29T14:00:46.712Z,88.70
2023-03-29T14:03:16.922Z,88.78
2023-03-29T14:05:49.228Z,88.36
2023-03-29T14:08:30.587Z,88.01
2023-03-29T14:11:01.576Z,87.62
2023-03-29T14:13:29.178Z,87.34
2023-03-29T14:16:02.746Z,86.39
2023-03-29T14:18:37.016Z,85.51
2023-03-29T14:21:03.927Z,85.30
2023-03-29T14:23:33.167Z,84.88
2023-03-29T14:26:18.115Z,84.30
2023-03-29T14:28:55.913Z,84.57
2023-03-29T14:31:22.396Z,83.67
2023-03-29T14:33:57.960Z,83.54
2023-03-29T14:36:26.128Z,83.54
2023-03-29T14:38:57.246Z,83.37
2023-03-29T14:41:28.798Z,83.82
2023-03-29T14:43:56.238Z,84.06
2023-03-29T14:46:23.016Z,84.15
2023-03-29T14:48:49.774Z,84.61
2023-03-29T14:51:16.438Z,84.57
2023-03-29T14:53:43.888Z,84.57
2023-03-29T14:56:16.286Z,84.84
2023-03-29T14:58:45.848Z,84.94
2023-03-29T15:01:23.209Z,85.29
2023-03-29T15:04:02.467Z,85.54
2023-03-29T15:06:30.534Z,85.59
2023-03-29T15:09:04.981Z,85.43
2023-03-29T15:11:32.618Z,85.93
2023-03-29T15:14:15.605Z,85.95
2023-03-29T15:16:45.054Z,85.94
2023-03-29T15:19:19.818Z,86.19
2023-03-29T15:21:49.137Z,86.04
2023-03-29T15:24:29.356Z,86.56
2023-03-29T15:27:04.234Z,86.08
2023-03-29T15:29:39.699Z,86.49
2023-03-29T15:32:06.282Z,86.53
2023-03-29T15:34:33.669Z,86.33
2023-03-29T15:37:01.431Z,86.33
2023-03-29T15:39:29.129Z,86.32
2023-03-29T15:41:57.076Z,86.44
2023-03-29T15:44:29.074Z,86.69
2023-03-29T15:46:56.302Z,86.29
2023-03-29T15:49:23.306Z,86.21
2023-03-29T15:51:49.829Z,86.54
2023-03-29T15:54:16.327Z,86.92
2023-03-29T15:56:52.865Z,87.70
2023-03-29T15:59:19.775Z,87.33
2023-03-29T16:01:46.674Z,88.16
2023-03-29T16:04:19.031Z,88.37
2023-03-29T16:06:48.149Z,88.92
2023-03-29T16:09:15.760Z,89.26
2023-03-29T16:11:43.648Z,89.24
2023-03-29T16:14:24.719Z,89.69
2023-03-29T16:16:51.992Z,89.28
2023-03-29T16:19:19.311Z,89.01
2023-03-29T16:21:45.975Z,88.58
2023-03-29T16:24:21.361Z,88.39
2023-03-29T16:26:48.713Z,88.42
2023-03-29T16:29:15.169Z,88.01
2023-03-29T16:31:41.692Z,88.11
2023-03-29T16:34:11.388Z,88.13
2023-03-29T16:36:37.937Z,87.59
2023-03-29T16:39:04.564Z,86.97
2023-03-29T16:41:31.327Z,86.68
2023-03-29T16:43:58.557Z,86.37
2023-03-29T16:46:25.168Z,86.78
2023-03-29T16:48:51.948Z,86.55
2023-03-29T16:51:18.457Z,86.19
2023-03-29T16:53:44.911Z,85.84
2023-03-29T16:56:11.386Z,85.61
2023-03-29T16:58:41.460Z,85.89
2023-03-29T17:01:11.986Z,85.99
2023-03-29T17:03:39.447Z,85.83
2023-03-29T17:06:06.818Z,85.91
2023-03-29T17:08:34.049Z,85.34
2023-03-29T17:11:01.500Z,84.80
2023-03-29T17:13:28.038Z,85.18
2023-03-29T17:15:56.132Z,85.08
2023-03-29T17:18:24.310Z,84.50
2023-03-29T17:20:52.437Z,83.41
2023-03-29T17:23:19.118Z,82.30
2023-03-29T17:25:45.632Z,81.96
2023-03-29T17:28:12.423Z,81.76
2023-03-29T17:30:39.286Z,81.24
2023-03-29T17:33:06.042Z,80.76
2023-03-29T17:35:32.603Z,80.72
2023-03-29T17:37:59.351Z,80.56
2023-03-29T17:40:25.944Z,80.64
2023-03-29T17:42:52.660Z,80.33
2023-03-29T17:45:19.492Z,80.17
2023-03-29T17:47:46.036Z,80.58
2023-03-29T17:50:12.952Z,81.53
2023-03-29T17:52:39.698Z,81.65
2023-03-29T17:55:10.356Z,81.88
2023-03-29T17:57:40.073Z,82.03
2023-03-29T18:00:08.996Z,82.29
2023-03-29T18:02:35.568Z,82.48
2023-03-29T18:05:02.297Z,82.77
2023-03-29T18:07:28.798Z,82.63
2023-03-29T18:09:55.289Z,83.28
2023-03-29T18:12:21.793Z,83.13
2023-03-29T18:14:48.329Z,82.99
2023-03-29T18:17:14.745Z,83.45
2023-03-29T18:19:41.221Z,83.04
2023-03-29T18:22:07.695Z,83.60
2023-03-29T18:24:34.357Z,83.50
2023-03-29T18:27:00.840Z,84.01
2023-03-29T18:29:27.391Z,83.91
2023-03-29T18:31:53.975Z,84.46
2023-03-29T18:34:20.499Z,84.44
2023-03-29T18:36:47.051Z,85.09
2023-03-29T18:39:13.478Z,85.01
2023-03-29T18:41:39.922Z,85.22
2023-03-29T18:44:06.385Z,85.49
2023-03-29T18:46:33.304Z,85.37
2023-03-29T18:49:02.469Z,86.16
2023-03-29T18:51:28.995Z,86.42
2023-03-29T18:53:56.041Z,85.93
2023-03-29T18:56:22.712Z,86.97
2023-03-29T18:58:49.352Z,86.74
2023-03-29T19:01:15.962Z,87.36
2023-03-29T19:03:42.599Z,86.95
2023-03-29T19:06:09.582Z,87.50
2023-03-29T19:08:36.102Z,87.52
2023-03-29T19:11:05.420Z,88.04
2023-03-29T19:13:32.025Z,88.60
2023-03-29T19:15:58.777Z,90.20
2023-03-29T19:18:25.631Z,91.48
2023-03-29T19:20:52.144Z,92.00
2023-03-29T19:23:18.614Z,92.53
2023-03-29T19:25:59.391Z,93.58
2023-03-29T19:28:26.910Z,93.42
2023-03-29T19:30:53.805Z,93.24
2023-03-29T19:33:20.446Z,94.11
2023-03-29T19:35:49.203Z,94.92
2023-03-29T19:38:15.736Z,95.52
2023-03-29T19:40:47.092Z,95.68
2023-03-29T19:43:13.659Z,95.74
2023-03-29T19:45:40.137Z,95.97
2023-03-29T19:48:06.647Z,95.94
2023-03-29T19:50:33.230Z,95.83
2023-03-29T19:52:59.769Z,96.74
2023-03-29T19:55:26.298Z,96.53
2023-03-29T19:57:52.830Z,97.03
2023-03-29T20:00:19.678Z,97.86
2023-03-29T20:02:46.231Z,98.09
2023-03-29T20:05:12.719Z,98.28
2023-03-29T20:07:39.201Z,98.27
2023-03-29T20:10:06.156Z,98.85
2023-03-29T20:12:32.647Z,99.66
2023-03-29T20:14:59.103Z,99.68
2023-03-29T20:17:25.696Z,99.27
2023-03-29T20:19:52.191Z,99.50
2023-03-29T20:22:18.649Z,99.55
2023-03-29T20:24:45.224Z,99.63
2023-03-29T20:27:11.751Z,99.85
2023-03-29T20:29:38.213Z,100.00
2023-03-29T20:32:04.779Z,99.71
2023-03-29T20:34:31.284Z,100.00
2023-03-29T20:36:57.795Z,100.00
2023-03-29T20:39:25.828Z,100.00
2023-03-29T20:41:52.558Z,100.00
2023-03-29T20:44:19.015Z,100.00
2023-03-29T20:46:45.529Z,100.00
2023-03-29T20:49:12.047Z,100.00
2023-03-29T20:51:39.716Z,100.00
2023-03-29T20:54:06.315Z,100.00
2023-03-29T20:56:37.868Z,100.00
2023-03-29T20:59:04.238Z,100.00
2023-03-29T21:01:30.733Z,100.00
2023-03-29T21:03:57.327Z,100.00
2023-03-29T21:06:23.897Z,100.00
2023-03-29T21:08:51.313Z,100.00
2023-03-29T21:11:19.751Z,100.00
2023-03-29T21:13:46.548Z,100.00
2023-03-29T21:16:13.167Z,100.00
2023-03-29T21:18:40.262Z,100.00
2023-03-29T21:21:08.034Z,100.00
2023-03-29T21:23:35.670Z,100.00
2023-03-29T21:26:03.124Z,100.00
2023-03-29T21:28:30.363Z,100.00
2023-03-29T21:30:56.917Z,100.00
2023-03-29T21:33:23.467Z,100.00
2023-03-29T21:35:50.613Z,100.00
2023-03-29T21:38:17.445Z,100.00
2023-03-29T21:40:43.941Z,100.00
2023-03-29T21:43:10.400Z,100.00
2023-03-29T21:45:36.893Z,100.00
2023-03-29T21:48:03.595Z,100.00
2023-03-29T21:50:32.536Z,100.00
2023-03-29T21:53:01.027Z,100.00
2023-03-29T21:55:28.345Z,100.00
2023-03-29T21:57:54.865Z,100.00
2023-03-29T22:00:21.370Z,100.00
2023-03-29T22:02:48.043Z,100.00
2023-03-29T22:05:14.893Z,100.00
2023-03-29T22:07:41.562Z,100.00
2023-03-29T22:10:10.073Z,100.00
2023-03-29T22:12:37.527Z,100.00
2023-03-29T22:15:05.651Z,100.00
2023-03-29T22:17:32.983Z,99.92
2023-03-29T22:19:59.582Z,100.00
2023-03-29T22:22:26.129Z,100.00
2023-03-29T22:24:54.614Z,100.00
2023-03-29T22:27:22.847Z,99.88
2023-03-29T22:29:49.347Z,100.00
2023-03-29T22:32:16.116Z,100.00
2023-03-29T22:34:42.699Z,100.00
2023-03-29T22:37:09.231Z,99.92
2023-03-29T22:39:35.744Z,99.65
2023-03-29T22:42:02.239Z,99.42
2023-03-29T22:44:28.709Z,99.27
2023-03-29T22:46:55.178Z,99.59
2023-03-29T22:49:21.676Z,99.37
2023-03-29T22:51:48.229Z,99.47
2023-03-29T22:54:14.689Z,99.65
2023-03-29T22:56:41.213Z,98.88
2023-03-29T22:59:07.685Z,99.25
2023-03-29T23:01:34.255Z,99.14
2023-03-29T23:04:00.871Z,99.14
2023-03-29T23:06:27.366Z,99.10
2023-03-29T23:08:53.919Z,98.37
2023-03-29T23:11:20.440Z,98.40
2023-03-29T23:13:46.949Z,98.55
2023-03-29T23:16:13.444Z,98.11
2023-03-29T23:18:40.002Z,98.68
2023-03-29T23:21:07.234Z,98.59
2023-03-29T23:23:33.946Z,98.31
2023-03-29T23:26:01.594Z,98.22
2023-03-29T23:28:30.126Z,97.96
2023-03-29T23:31:00.096Z,96.92
2023-03-29T23:33:27.987Z,97.77
2023-03-29T23:35:54.606Z,97.67
2023-03-29T23:38:21.226Z,97.03
2023-03-29T23:40:54.664Z,97.74
2023-03-29T23:43:21.313Z,97.50
2023-03-29T23:45:47.764Z,96.96
2023-03-29T23:48:14.245Z,96.87
2023-03-29T23:50:42.824Z,96.90
2023-03-29T23:53:09.305Z,97.62
2023-03-29T23:55:35.753Z,97.70
2023-03-29T23:58:02.228Z,97.49
